Time;durP1;ratioP1;P1;durP2;ratioP2;P2;SDS_P1;SDS_P2;PMS_P1;PMS_P2;Temp;Humidity;BMP_temperature;BMP_pressure;BME280_temperature;BME280_humidity;BME280_pressure;Samples;Min_cycle;Max_cycle;Signal;HPM_P1;HPM_P2
2021/01/22 00:04:44;;;;;;;12.83;3.37;;;;;;;5.36;78.29;97416.41;249478;1148;22950;-75
2021/01/22 00:09:46;;;;;;;9.25;3.45;;;;;;;5.40;78.36;97409.45;249529;1148;23132;-75
2021/01/22 00:14:48;;;;;;;5.17;3.13;;;;;;;5.43;79.11;97419.52;249401;1148;23071;-72
2021/01/22 00:19:50;;;;;;;10.80;3.15;;;;;;;5.43;78.78;97404.37;249614;1151;22954;-73
2021/01/22 00:24:52;;;;;;;5.40;2.90;;;;;;;5.46;78.99;97395.04;249617;1151;22945;-75
2021/01/22 00:29:54;;;;;;;3.80;2.73;;;;;;;5.46;79.18;97384.42;249476;1148;22948;-73
2021/01/22 00:34:56;;;;;;;6.77;3.33;;;;;;;5.50;78.72;97382.77;249569;1155;22973;-73
2021/01/22 00:39:58;;;;;;;3.40;2.20;;;;;;;5.51;79.02;97373.69;249430;1148;22992;-74
2021/01/22 00:45:07;;;;;;;7.23;2.20;;;;;;;5.54;79.09;97374.98;249403;1148;22967;-75
2021/01/22 00:50:10;;;;;;;3.87;1.90;;;;;;;5.54;79.23;97369.67;249512;1148;22964;-75
2021/01/22 00:55:13;;;;;;;7.13;2.00;;;;;;;5.54;79.00;97353.73;249741;1156;22954;-75
2021/01/22 01:00:34;;;;;;;6.50;2.37;;;;;;;5.57;79.20;97340.68;249655;1148;22960;-74
2021/01/22 01:05:53;;;;;;;11.07;2.70;;;;;;;5.61;79.04;97312.45;249616;1148;26411;-75
2021/01/22 01:10:55;;;;;;;5.43;1.90;;;;;;;5.63;79.21;97320.91;249772;1148;23383;-75
2021/01/22 01:16:28;;;;;;;2.90;2.10;;;;;;;5.63;79.56;97309.50;249620;1148;23040;-75
2021/01/22 01:21:30;;;;;;;4.90;1.73;;;;;;;5.64;79.43;97303.12;249452;1148;22973;-74
2021/01/22 01:26:32;;;;;;;5.43;2.63;;;;;;;5.66;79.38;97291.09;249414;1155;22951;-75
2021/01/22 01:31:34;;;;;;;4.67;2.50;;;;;;;5.63;78.76;97291.68;249404;1150;22945;-73
2021/01/22 01:36:36;;;;;;;3.35;1.65;;;;;;;5.64;79.01;97293.27;249525;1156;22949;-75
2021/01/22 01:41:39;;;;;;;3.03;1.80;;;;;;;5.64;78.09;97271.23;249380;1149;22949;-76
2021/01/22 01:46:41;;;;;;;5.63;2.70;;;;;;;5.65;79.10;97252.34;249489;1148;22941;-75
2021/01/22 01:51:45;;;;;;;4.50;2.07;;;;;;;5.65;78.63;97254.19;249755;1151;22907;-76
2021/01/22 01:56:47;;;;;;;7.10;2.20;;;;;;;5.66;78.76;97247.80;249854;1156;22948;-73
2021/01/22 02:01:51;;;;;;;4.43;2.60;;;;;;;5.66;79.64;97232.64;249695;1148;22949;-73
2021/01/22 02:06:53;;;;;;;3.37;2.17;;;;;;;5.69;79.18;97214.55;249652;1151;22945;-75
2021/01/22 02:11:56;;;;;;;3.30;1.80;;;;;;;5.72;79.04;97220.08;249544;1148;22905;-74
2021/01/22 02:17:00;;;;;;;2.97;1.67;;;;;;;5.75;78.82;97214.17;249492;1148;23010;-73
2021/01/22 02:22:03;;;;;;;5.00;1.87;;;;;;;5.78;79.41;97210.92;249697;1148;27042;-75
2021/01/22 02:27:05;;;;;;;6.87;1.93;;;;;;;5.81;79.34;97198.92;249710;1148;23024;-75
2021/01/22 02:32:09;;;;;;;3.20;1.73;;;;;;;5.82;78.61;97205.81;249519;1156;22949;-75
2021/01/22 02:37:13;;;;;;;4.40;1.80;;;;;;;5.82;78.95;97203.94;249797;1156;23100;-80
2021/01/22 02:42:17;;;;;;;5.50;2.20;;;;;;;5.78;79.13;97212.80;249614;1147;26367;-76
2021/01/22 02:47:20;;;;;;;3.67;2.07;;;;;;;5.76;78.61;97205.09;249500;1148;22976;-77
2021/01/22 02:52:22;;;;;;;5.27;2.80;;;;;;;5.73;78.87;97210.23;249791;1148;22960;-76
2021/01/22 02:57:56;;;;;;;9.20;3.10;;;;;;;5.68;79.23;97205.81;249789;1156;23014;-74
2021/01/22 03:03:17;;;;;;;11.30;2.77;;;;;;;5.66;78.80;97184.05;249708;1148;23362;-74
2021/01/22 03:08:21;;;;;;;5.63;2.63;;;;;;;5.63;78.51;97180.10;249509;1148;26363;-76
2021/01/22 03:13:25;;;;;;;5.10;2.33;;;;;;;5.63;79.50;97181.98;249845;1148;22935;-75
2021/01/22 03:18:28;;;;;;;8.40;2.80;;;;;;;5.61;79.16;97166.34;249471;1148;22976;-75
2021/01/22 03:23:30;;;;;;;6.73;2.50;;;;;;;5.58;79.43;97172.25;249433;1148;22994;-75
2021/01/22 03:28:32;;;;;;;6.20;2.67;;;;;;;5.55;79.27;97164.84;249581;1155;23104;-75
2021/01/22 03:33:34;;;;;;;9.47;3.33;;;;;;;5.50;79.27;97156.99;249565;1148;22969;-74
2021/01/22 03:38:37;;;;;;;4.83;2.37;;;;;;;5.43;79.90;97156.60;249695;1148;28547;-75
2021/01/22 03:43:39;;;;;;;9.65;3.30;;;;;;;5.39;79.71;97148.42;249814;1147;22954;-75
2021/01/22 03:48:41;;;;;;;5.80;2.00;;;;;;;5.31;78.93;97136.59;250055;1151;22964;-75
2021/01/22 03:53:43;;;;;;;8.13;2.33;;;;;;;5.28;79.81;97158.44;249670;1148;22945;-73
2021/01/22 03:58:45;;;;;;;8.03;2.73;;;;;;;5.27;79.56;97138.30;249576;1156;22946;-74
2021/01/22 04:03:51;;;;;;;5.97;2.40;;;;;;;5.29;79.51;97136.12;249422;1148;22905;-75
2021/01/22 04:08:53;;;;;;;7.00;2.60;;;;;;;5.34;79.94;97116.64;249653;1148;22985;-77
2021/01/22 04:13:55;;;;;;;8.20;2.67;;;;;;;5.39;80.08;97116.55;249704;1148;23044;-75
2021/01/22 04:18:57;;;;;;;6.50;2.13;;;;;;;5.50;80.38;97106.53;249762;1148;22958;-73
2021/01/22 04:24:00;;;;;;;3.07;1.70;;;;;;;5.60;80.61;97101.00;249587;1148;25659;-76
2021/01/22 04:29:03;;;;;;;13.70;3.00;;;;;;;5.67;80.29;97103.27;249626;1156;22970;-76
2021/01/22 04:34:05;;;;;;;11.03;3.23;;;;;;;5.73;79.92;97085.35;249548;1148;22977;-76
2021/01/22 04:39:07;;;;;;;5.77;2.80;;;;;;;5.75;80.06;97104.42;249656;1148;23406;-75
2021/01/22 04:44:09;;;;;;;11.37;2.67;;;;;;;5.78;79.86;97101.20;249709;1148;22930;-75
2021/01/22 04:49:11;;;;;;;8.55;3.45;;;;;;;5.81;80.17;97093.40;249615;1151;22943;-74
2021/01/22 04:54:29;;;;;;;12.77;3.70;;;;;;;5.84;80.47;97097.34;249783;1148;22949;-76
2021/01/22 04:59:46;;;;;;;5.05;3.30;;;;;;;5.85;79.91;97080.31;249847;1148;26357;-74
2021/01/22 05:04:52;;;;;;;8.43;3.80;;;;;;;5.88;80.63;97082.37;249512;1148;22951;-75
2021/01/22 05:09:54;;;;;;;7.90;4.10;;;;;;;5.92;80.79;97083.34;249571;1156;22966;-74
2021/01/22 05:14:56;;;;;;;11.93;3.80;;;;;;;5.91;80.02;97083.65;249556;1148;23007;-76
2021/01/22 05:20:05;;;;;;;9.00;3.37;;;;;;;5.90;80.49;97082.84;249700;1151;23070;-76
2021/01/22 05:25:09;;;;;;;11.93;3.70;;;;;;;5.88;80.31;97079.71;249935;1147;25964;-75
2021/01/22 05:30:12;;;;;;;8.60;4.03;;;;;;;5.85;79.75;97074.20;250005;1147;25922;-73
2021/01/22 05:35:28;;;;;;;9.85;5.50;;;;;;;5.82;80.29;97075.60;249679;1148;22980;-75
2021/01/22 05:40:30;;;;;;;17.40;5.90;;;;;;;5.75;80.11;97065.38;249276;1148;22976;-76
2021/01/22 05:45:46;;;;;;;12.80;5.47;;;;;;;5.72;80.12;97067.83;249775;1148;22992;-76
2021/01/22 05:50:57;;;;;;;14.83;6.37;;;;;;;5.76;80.41;97056.30;249756;1155;23508;-74
2021/01/22 05:56:06;;;;;;;18.25;7.35;;;;;;;5.79;80.19;97054.92;249767;1148;23857;-76
2021/01/22 06:01:09;;;;;;;13.70;6.07;;;;;;;5.77;80.63;97057.10;249780;1156;23396;-75
2021/01/22 06:06:13;;;;;;;21.40;6.97;;;;;;;5.73;80.23;97050.81;249760;1148;23819;-76
2021/01/22 06:11:18;;;;;;;18.53;5.67;;;;;;;5.65;79.92;97039.81;249628;1155;23502;-75
2021/01/22 06:16:28;;;;;;;11.90;5.43;;;;;;;5.58;80.85;97047.40;249768;1148;25832;-75
2021/01/22 06:21:34;;;;;;;15.70;6.00;;;;;;;5.58;80.93;97062.53;249817;1148;23100;-74
2021/01/22 06:26:41;;;;;;;11.60;5.80;;;;;;;5.57;80.99;97058.30;249727;1148;23529;-76
2021/01/22 06:31:44;;;;;;;18.60;6.43;;;;;;;5.50;80.50;97058.72;249678;1155;23017;-75
2021/01/22 06:36:48;;;;;;;13.80;5.67;;;;;;;5.41;80.09;97061.27;249964;1148;23009;-72
2021/01/22 06:41:51;;;;;;;16.73;7.03;;;;;;;5.37;81.09;97062.16;249874;1151;22994;-76
2021/01/22 06:46:53;;;;;;;18.90;6.45;;;;;;;5.34;80.64;97054.80;249953;1148;22962;-74
2021/01/22 06:52:12;;;;;;;21.67;7.97;;;;;;;5.35;81.24;97046.53;250084;1148;23037;-77
2021/01/22 06:57:16;;;;;;;23.07;7.57;;;;;;;5.44;80.65;97047.42;251117;1148;22923;-77
2021/01/22 07:02:39;;;;;;;25.60;9.07;;;;;;;5.46;80.95;97055.86;250088;1148;23914;-77
2021/01/22 07:07:49;;;;;;;22.97;11.10;;;;;;;5.53;81.40;97052.03;250442;1148;26069;-74
2021/01/22 07:12:51;;;;;;;25.00;10.80;;;;;;;5.62;81.61;97056.35;250754;1148;23693;-74
2021/01/22 07:18:01;;;;;;;19.60;9.33;;;;;;;5.66;80.92;97059.95;251006;1147;22950;-75
2021/01/22 07:23:03;;;;;;;23.97;9.80;;;;;;;5.65;80.33;97047.78;250601;1148;23190;-75
2021/01/22 07:28:12;;;;;;;22.27;11.60;;;;;;;5.73;80.88;97038.30;252606;1148;22960;-74
2021/01/22 07:33:26;;;;;;;15.50;6.23;;;;;;;5.77;80.62;97043.81;251113;1148;24324;-73
2021/01/22 07:38:28;;;;;;;11.23;4.80;;;;;;;5.82;80.46;97051.69;251003;1147;23066;-75
2021/01/22 07:43:31;;;;;;;15.43;6.97;;;;;;;5.84;80.28;97052.16;250579;1147;22966;-72
2021/01/22 07:48:35;;;;;;;12.67;4.67;;;;;;;5.88;79.69;97060.33;250304;1147;24565;-73
2021/01/22 07:53:37;;;;;;;9.55;4.35;;;;;;;5.96;80.12;97070.23;250234;1148;22970;-72
2021/01/22 07:58:40;;;;;;;11.53;4.17;;;;;;;6.09;79.96;97084.63;250091;1147;22956;-75
2021/01/22 08:03:43;;;;;;;12.77;4.77;;;;;;;6.28;80.61;97087.91;250239;1147;26420;-75
2021/01/22 08:08:47;;;;;;;22.93;5.37;;;;;;;6.41;79.99;97077.48;249997;1147;23685;-74
2021/01/22 08:13:49;;;;;;;12.37;4.97;;;;;;;6.45;79.90;97086.44;250070;1148;23325;-75
2021/01/22 08:18:52;;;;;;;8.13;3.80;;;;;;;6.56;79.87;97097.63;250150;1147;22942;-75
2021/01/22 08:23:56;;;;;;;10.27;4.27;;;;;;;6.68;79.71;97103.97;250766;1147;22961;-75
2021/01/22 08:28:58;;;;;;;8.90;4.65;;;;;;;6.82;80.10;97109.22;250994;1147;24538;-73
2021/01/22 08:34:01;;;;;;;8.07;2.93;;;;;;;7.01;79.50;97124.22;250414;1148;23507;-72
2021/01/22 08:39:03;;;;;;;10.00;3.47;;;;;;;7.03;79.03;97106.83;250389;1148;23438;-73
2021/01/22 08:44:06;;;;;;;9.50;4.77;;;;;;;7.04;78.74;97099.64;250435;1146;22969;-73
2021/01/22 08:49:13;;;;;;;8.80;4.13;;;;;;;7.02;77.92;97105.28;250015;1145;22945;-72
2021/01/22 08:54:15;;;;;;;17.33;5.10;;;;;;;7.10;78.62;97100.30;252602;1148;22970;-74
2021/01/22 08:59:18;;;;;;;12.37;6.57;;;;;;;7.38;79.81;97100.10;257006;1147;22685;-74
2021/01/22 09:04:34;;;;;;;15.55;6.05;;;;;;;7.76;80.45;97094.25;253415;1147;23001;-75
2021/01/22 09:09:43;;;;;;;20.43;8.23;;;;;;;8.14;79.94;97101.66;252108;1148;22945;-74
2021/01/22 09:14:54;;;;;;;25.80;8.03;;;;;;;8.32;78.87;97097.12;250378;1148;23350;-76
2021/01/22 09:20:07;;;;;;;17.60;7.70;;;;;;;8.33;78.65;97091.47;250325;1147;23112;-75
2021/01/22 09:25:15;;;;;;;13.93;6.37;;;;;;;8.44;79.01;97080.49;250519;1146;22988;-76
2021/01/22 09:30:20;;;;;;;21.40;7.83;;;;;;;8.55;78.87;97090.55;250631;1147;22989;-76
2021/01/22 09:35:25;;;;;;;12.85;5.30;;;;;;;8.50;77.39;97087.25;250477;1148;22948;-79
2021/01/22 09:40:29;;;;;;;11.53;5.97;;;;;;;8.52;78.09;97072.50;252103;1147;23031;-80
2021/01/22 09:45:31;;;;;;;16.17;6.00;;;;;;;8.75;78.31;97058.95;250496;1148;22977;-75
2021/01/22 09:50:34;;;;;;;21.85;6.55;;;;;;;9.01;78.42;97074.10;250477;1148;22960;-75
2021/01/22 09:55:37;;;;;;;9.60;4.07;;;;;;;9.15;76.62;97057.87;250719;1148;22940;-79
2021/01/22 10:00:39;;;;;;;17.10;7.20;;;;;;;9.18;75.95;97054.58;251158;1148;23351;-79
2021/01/22 10:05:42;;;;;;;17.43;6.13;;;;;;;9.07;74.66;97060.26;250966;1148;22992;-75
2021/01/22 10:10:44;;;;;;;12.77;5.57;;;;;;;9.02;74.46;97060.45;257049;1147;23317;-75
2021/01/22 10:15:48;;;;;;;21.43;6.37;;;;;;;9.00;74.28;97073.33;252022;1148;23084;-76
2021/01/22 10:20:51;;;;;;;18.30;6.23;;;;;;;8.99;74.06;97061.06;250269;1148;22949;-76
2021/01/22 10:25:53;;;;;;;14.27;6.70;;;;;;;8.96;73.23;97058.27;250259;1148;22998;-76
2021/01/22 10:30:55;;;;;;;15.73;6.23;;;;;;;8.90;73.76;97049.65;250164;1148;22991;-75
2021/01/22 10:35:57;;;;;;;10.57;4.63;;;;;;;8.95;73.75;97056.69;250108;1148;23396;-75
2021/01/22 10:40:59;;;;;;;13.00;5.20;;;;;;;8.97;73.65;97063.29;250042;1148;22976;-74
2021/01/22 10:46:01;;;;;;;10.60;5.03;;;;;;;9.03;73.36;97075.35;250600;1148;22971;-75
2021/01/22 10:51:05;;;;;;;15.27;6.07;;;;;;;9.09;73.54;97073.30;250342;1148;22948;-75
2021/01/22 10:56:07;;;;;;;17.97;6.07;;;;;;;9.08;73.25;97067.17;250474;1147;22894;-76
2021/01/22 11:01:09;;;;;;;11.27;5.33;;;;;;;9.12;72.68;97055.84;250317;1148;22971;-77
2021/01/22 11:06:12;;;;;;;11.03;4.80;;;;;;;9.15;72.37;97061.34;251270;1148;23071;-75
2021/01/22 11:11:14;;;;;;;7.37;2.63;;;;;;;9.19;71.57;97054.25;250737;1148;23281;-77
2021/01/22 11:16:20;;;;;;;3.67;2.00;;;;;;;9.23;70.77;97046.36;257127;1148;22838;-73
2021/01/22 11:21:23;;;;;;;3.37;1.77;;;;;;;9.25;71.77;97034.26;250648;1148;22962;-79
2021/01/22 11:26:27;;;;;;;5.60;2.30;;;;;;;9.28;70.99;97035.51;250638;1148;22937;-78
2021/01/22 11:31:29;;;;;;;5.67;1.50;;;;;;;9.31;71.48;97042.09;250383;1148;23054;-79
2021/01/22 11:36:31;;;;;;;3.97;1.97;;;;;;;9.34;71.57;97039.55;250537;1148;23045;-78
2021/01/22 11:41:33;;;;;;;5.30;1.67;;;;;;;9.40;72.32;97040.15;250413;1148;22946;-77
2021/01/22 11:46:40;;;;;;;4.80;2.33;;;;;;;9.42;71.71;97038.72;250370;1148;22953;-78
2021/01/22 11:51:43;;;;;;;4.63;2.73;;;;;;;9.42;72.11;97044.07;250081;1148;23101;-79
2021/01/22 11:56:46;;;;;;;9.67;2.63;;;;;;;9.41;71.91;97039.85;250352;1148;22976;-78
2021/01/22 12:01:49;;;;;;;7.07;2.97;;;;;;;9.39;71.77;97044.72;250597;1148;22972;-78
2021/01/22 12:06:51;;;;;;;7.35;2.40;;;;;;;9.37;71.68;97046.14;250201;1148;23084;-79
2021/01/22 12:11:54;;;;;;;6.03;3.23;;;;;;;9.28;71.10;97029.39;250235;1148;22941;-79
2021/01/22 12:16:56;;;;;;;2.80;2.00;;;;;;;9.14;71.54;97030.38;250678;1148;23124;-80
2021/01/22 12:21:58;;;;;;;5.57;3.20;;;;;;;9.06;71.52;97015.17;250408;1148;22956;-79
2021/01/22 12:27:01;;;;;;;9.63;2.93;;;;;;;9.01;72.30;97018.02;250767;1148;22957;-78
2021/01/22 12:32:03;;;;;;;11.37;3.83;;;;;;;8.96;71.95;97015.54;251038;1148;24735;-80
2021/01/22 12:37:06;;;;;;;13.33;4.23;;;;;;;8.88;72.39;97020.59;250292;1148;22963;-76
2021/01/22 12:42:09;;;;;;;8.60;3.30;;;;;;;8.87;72.68;97012.88;249823;1148;22961;-75
2021/01/22 12:47:11;;;;;;;9.23;3.83;;;;;;;8.89;73.03;97027.48;249883;1148;27486;-76
2021/01/22 12:52:14;;;;;;;7.10;3.03;;;;;;;8.90;73.08;97022.95;249912;1148;22942;-75
2021/01/22 12:57:16;;;;;;;6.55;3.45;;;;;;;8.94;73.65;97029.22;249782;1148;22956;-76
2021/01/22 13:02:18;;;;;;;7.43;3.30;;;;;;;9.01;73.94;97018.81;249883;1151;22941;-77
2021/01/22 13:07:21;;;;;;;7.30;3.50;;;;;;;9.06;74.18;97026.63;250072;1148;23025;-78
2021/01/22 13:12:23;;;;;;;8.40;4.35;;;;;;;9.02;73.40;97036.41;250474;1150;25989;-79
2021/01/22 13:17:26;;;;;;;5.65;2.60;;;;;;;8.94;73.49;97039.09;250211;1148;22955;-79
2021/01/22 13:22:29;;;;;;;5.75;3.10;;;;;;;8.86;73.84;97049.49;249998;1148;22967;-77
2021/01/22 13:27:32;;;;;;;7.70;3.67;;;;;;;8.81;73.77;97054.22;250125;1148;23030;-80
2021/01/22 13:32:35;;;;;;;8.17;3.00;;;;;;;8.78;74.03;97052.20;250182;1148;22957;-79
2021/01/22 13:37:38;;;;;;;7.63;2.67;;;;;;;8.77;73.91;97045.28;250205;1148;25918;-80
2021/01/22 13:42:47;;;;;;;7.63;3.33;;;;;;;8.77;74.13;97053.28;250721;1148;23447;-79
2021/01/22 13:47:51;;;;;;;9.47;2.67;;;;;;;8.73;74.02;97055.83;250358;1148;26408;-79
2021/01/22 13:52:53;;;;;;;8.80;2.20;;;;;;;8.69;74.14;97065.57;250046;1148;22973;-76
2021/01/22 13:57:55;;;;;;;5.97;2.20;;;;;;;8.62;74.13;97068.72;250178;1148;23406;-78
2021/01/22 14:02:58;;;;;;;11.60;4.57;;;;;;;8.50;74.28;97071.24;250174;1147;23056;-78
2021/01/22 14:08:01;;;;;;;9.43;4.50;;;;;;;8.44;74.92;97081.27;250204;1148;23103;-77
2021/01/22 14:13:03;;;;;;;6.97;3.27;;;;;;;8.38;75.03;97077.20;249899;1148;23129;-77
2021/01/22 14:18:05;;;;;;;9.57;3.63;;;;;;;8.34;75.50;97065.59;250129;1148;22977;-76
2021/01/22 14:23:08;;;;;;;11.10;4.03;;;;;;;8.37;75.99;97067.63;249954;1148;23037;-75
2021/01/22 14:28:10;;;;;;;9.83;4.03;;;;;;;8.38;76.18;97061.97;250183;1148;22978;-76
2021/01/22 14:33:12;;;;;;;13.10;4.43;;;;;;;8.39;76.22;97068.08;250310;1148;22945;-74
2021/01/22 14:38:16;;;;;;;12.50;5.40;;;;;;;8.40;76.71;97072.32;250163;1148;22983;-76
2021/01/22 14:43:18;;;;;;;12.15;6.25;;;;;;;8.42;76.93;97077.34;249759;1148;22963;-75
2021/01/22 14:48:20;;;;;;;18.33;7.57;;;;;;;8.39;76.98;97074.22;250036;1147;22957;-75
2021/01/22 14:53:23;;;;;;;20.90;8.43;;;;;;;8.34;76.81;97077.03;249924;1148;22973;-74
2021/01/22 14:58:25;;;;;;;19.93;7.73;;;;;;;8.30;77.12;97073.42;249885;1145;22913;-73
2021/01/22 15:03:27;;;;;;;19.40;6.70;;;;;;;8.28;77.59;97067.64;250431;1148;23033;-74
2021/01/22 15:08:30;;;;;;;18.17;6.73;;;;;;;8.23;77.26;97070.45;250448;1147;23097;-74
2021/01/22 15:13:32;;;;;;;17.60;6.45;;;;;;;8.14;77.55;97069.66;255872;1147;22905;-73
2021/01/22 15:18:34;;;;;;;20.03;7.77;;;;;;;8.07;77.94;97072.02;250192;1147;22996;-74
2021/01/22 15:23:37;;;;;;;16.50;7.83;;;;;;;7.97;77.95;97067.77;249916;1148;26395;-74
2021/01/22 15:28:39;;;;;;;18.77;8.73;;;;;;;7.88;78.26;97076.55;249837;1148;22939;-73
2021/01/22 15:33:41;;;;;;;16.63;6.63;;;;;;;7.79;77.99;97085.62;249930;1147;22964;-73
2021/01/22 15:38:43;;;;;;;16.40;7.15;;;;;;;7.64;78.26;97081.50;249896;1148;22938;-74
2021/01/22 15:43:45;;;;;;;14.95;7.10;;;;;;;7.57;78.84;97081.17;249966;1145;22938;-75
2021/01/22 15:48:48;;;;;;;12.70;5.65;;;;;;;7.49;78.78;97069.42;249608;1146;24805;-75
2021/01/22 15:53:50;;;;;;;15.77;7.13;;;;;;;7.43;79.19;97087.42;249623;1148;22925;-76
2021/01/22 15:58:52;;;;;;;13.65;6.10;;;;;;;7.31;79.01;97097.87;249496;1148;22942;-75
2021/01/22 16:03:53;;;;;;;15.73;7.27;;;;;;;7.07;78.50;97091.04;249288;1156;23126;-74
2021/01/22 16:08:56;;;;;;;21.83;9.10;;;;;;;6.98;79.18;97079.55;249368;1148;22979;-74
2021/01/22 16:13:58;;;;;;;23.05;9.90;;;;;;;6.90;79.64;97074.97;249358;1155;22974;-74
2021/01/22 16:19:00;;;;;;;25.70;10.53;;;;;;;6.78;78.98;97056.91;249441;1148;22976;-76
2021/01/22 16:24:03;;;;;;;27.93;11.07;;;;;;;6.65;80.02;97043.37;249397;1155;23018;-75
2021/01/22 16:29:05;;;;;;;32.03;14.07;;;;;;;6.50;80.19;97038.44;249358;1148;22948;-74
2021/01/22 16:34:07;;;;;;;24.23;10.83;;;;;;;6.36;80.12;97061.67;249521;1155;22939;-75
2021/01/22 16:39:09;;;;;;;19.63;8.43;;;;;;;6.19;80.45;97076.41;249419;1148;23103;-74
2021/01/22 16:44:28;;;;;;;22.37;10.33;;;;;;;6.01;81.09;97056.09;249682;1152;23259;-75
2021/01/22 16:49:31;;;;;;;20.93;9.23;;;;;;;5.90;80.85;97060.80;249462;1148;22957;-72
2021/01/22 16:54:33;;;;;;;21.43;8.90;;;;;;;5.81;81.23;97069.48;249468;1151;22966;-75
2021/01/22 16:59:34;;;;;;;19.53;8.93;;;;;;;5.74;81.21;97065.67;249623;1148;22956;-72
2021/01/22 17:04:38;;;;;;;19.47;8.60;;;;;;;5.69;81.43;97063.12;249564;1155;23316;-75
2021/01/22 17:09:40;;;;;;;22.27;8.63;;;;;;;5.66;81.69;97065.27;249639;1148;22960;-71
2021/01/22 17:14:42;;;;;;;21.53;9.57;;;;;;;5.64;82.20;97054.17;249364;1148;23031;-74
2021/01/22 17:19:44;;;;;;;26.13;11.43;;;;;;;5.59;82.11;97048.17;249399;1148;22995;-73
2021/01/22 17:24:46;;;;;;;22.03;9.33;;;;;;;5.50;82.26;97045.44;249630;1153;22967;-73
2021/01/22 17:29:48;;;;;;;20.63;9.03;;;;;;;5.46;82.34;97029.30;249289;1148;22930;-74
2021/01/22 17:34:50;;;;;;;15.03;6.83;;;;;;;5.46;82.87;97036.50;249330;1148;22973;-74
2021/01/22 17:39:52;;;;;;;27.30;9.80;;;;;;;5.48;82.60;97050.25;249348;1148;22945;-73
2021/01/22 17:44:54;;;;;;;11.37;6.33;;;;;;;5.49;82.47;97051.83;249350;1148;23373;-74
2021/01/22 17:49:56;;;;;;;13.85;5.30;;;;;;;5.52;83.09;97048.58;249425;1148;22901;-74
2021/01/22 17:54:58;;;;;;;31.17;10.00;;;;;;;5.56;83.23;97048.78;249655;1148;22962;-72
2021/01/22 18:00:01;;;;;;;24.20;7.73;;;;;;;5.57;82.95;97074.23;249518;1148;22942;-71
2021/01/22 18:05:08;;;;;;;15.40;7.60;;;;;;;5.55;82.77;97074.53;249507;1148;22961;-74
2021/01/22 18:10:12;;;;;;;14.33;7.07;;;;;;;5.53;83.17;97058.13;249666;1148;23018;-74
2021/01/22 18:15:14;;;;;;;19.93;9.27;;;;;;;5.51;82.56;97057.62;249691;1148;23009;-73
2021/01/22 18:20:16;;;;;;;22.70;8.17;;;;;;;5.51;83.04;97051.53;249435;1156;23509;-75
2021/01/22 18:25:19;;;;;;;23.03;9.40;;;;;;;5.50;83.43;97032.16;249440;1148;23212;-75
2021/01/22 18:30:21;;;;;;;18.80;7.55;;;;;;;5.50;83.05;97034.81;249391;1148;22958;-75
2021/01/22 18:35:23;;;;;;;16.30;8.07;;;;;;;5.56;83.30;97030.96;249554;1156;22945;-74
2021/01/22 18:40:26;;;;;;;14.20;5.97;;;;;;;5.61;83.41;97036.17;249441;1148;23217;-74
2021/01/22 18:45:28;;;;;;;15.37;6.27;;;;;;;5.68;83.39;97032.31;249801;1148;23106;-73
2021/01/22 18:50:38;;;;;;;13.38;6.15;;;;;;;5.77;83.42;97060.53;249443;1148;23048;-75
2021/01/22 18:55:40;;;;;;;18.90;7.40;;;;;;;5.89;83.55;97077.83;249598;1156;23041;-73
2021/01/22 19:00:42;;;;;;;24.30;10.80;;;;;;;5.88;83.28;97093.00;249367;1148;23402;-73
2021/01/22 19:05:44;;;;;;;20.13;8.40;;;;;;;5.79;82.55;97081.48;249505;1155;23034;-74
2021/01/22 19:10:46;;;;;;;23.57;8.33;;;;;;;5.69;82.29;97084.38;249528;1148;23404;-75
2021/01/22 19:15:49;;;;;;;16.37;8.10;;;;;;;5.55;82.72;97087.81;249435;1151;23096;-75
2021/01/22 19:20:51;;;;;;;22.23;8.93;;;;;;;5.43;82.20;97074.27;249318;1148;28993;-76
2021/01/22 19:25:53;;;;;;;21.97;9.60;;;;;;;5.35;82.78;97072.30;249322;1156;23008;-75
2021/01/22 19:30:56;;;;;;;20.27;8.30;;;;;;;5.24;82.64;97061.86;249267;1148;26101;-75
2021/01/22 19:35:59;;;;;;;21.60;9.50;;;;;;;5.16;82.77;97056.47;249331;1148;23148;-74
2021/01/22 19:41:03;;;;;;;24.85;10.30;;;;;;;5.10;82.78;97055.77;249428;1148;23093;-74
2021/01/22 19:46:05;;;;;;;24.13;9.03;;;;;;;5.09;83.18;97047.03;249576;1148;22982;-73
2021/01/22 19:51:07;;;;;;;17.90;7.80;;;;;;;5.09;83.00;97039.07;249746;1148;22972;-72
2021/01/22 19:56:11;;;;;;;16.20;7.65;;;;;;;5.06;83.17;97026.37;249694;1148;26404;-75
2021/01/22 20:01:14;;;;;;;16.97;8.07;;;;;;;5.07;83.54;97035.14;249406;1148;22967;-76
2021/01/22 20:06:16;;;;;;;19.10;8.90;;;;;;;5.11;83.36;97036.13;249336;1148;22952;-75
2021/01/22 20:11:19;;;;;;;18.30;8.65;;;;;;;5.13;83.30;97036.59;249453;1148;22969;-76
2021/01/22 20:16:21;;;;;;;26.83;10.10;;;;;;;5.16;83.15;97028.04;249400;1148;22962;-76
2021/01/22 20:21:23;;;;;;;26.83;9.60;;;;;;;5.16;83.52;97029.92;249527;1148;22979;-74
2021/01/22 20:26:26;;;;;;;24.03;9.47;;;;;;;5.13;83.93;97033.94;249865;1147;26401;-75
2021/01/22 20:31:29;;;;;;;24.13;9.67;;;;;;;5.08;83.64;97032.19;249538;1155;22999;-74
2021/01/22 20:36:32;;;;;;;23.93;10.73;;;;;;;5.02;83.91;97032.56;249462;1148;22968;-74
2021/01/22 20:41:34;;;;;;;33.50;13.30;;;;;;;4.99;83.41;97038.47;249355;1151;22952;-74
2021/01/22 20:46:36;;;;;;;27.80;12.07;;;;;;;4.98;83.84;97037.70;249368;1148;22911;-76
2021/01/22 20:51:55;;;;;;;33.40;12.73;;;;;;;4.99;84.15;97031.28;249417;1148;23639;-74
2021/01/22 20:56:57;;;;;;;27.07;12.37;;;;;;;5.00;84.25;97019.59;249383;1148;22973;-72
2021/01/22 21:01:59;;;;;;;41.90;14.40;;;;;;;5.00;84.53;97016.17;249482;1148;23053;-74
2021/01/22 21:07:02;;;;;;;34.07;12.30;;;;;;;5.01;84.42;97007.10;249423;1150;22967;-74
2021/01/22 21:12:05;;;;;;;23.73;10.57;;;;;;;5.09;84.67;96995.80;249364;1148;23027;-74
2021/01/22 21:17:07;;;;;;;21.97;10.13;;;;;;;5.16;84.00;97001.49;249378;1148;23036;-75
2021/01/22 21:22:09;;;;;;;19.03;9.13;;;;;;;5.11;84.07;97004.27;249395;1155;22963;-75
2021/01/22 21:27:11;;;;;;;31.60;12.93;;;;;;;4.96;83.80;97013.30;249330;1148;27710;-75
2021/01/22 21:32:14;;;;;;;26.30;10.67;;;;;;;4.87;84.09;97002.59;249483;1148;23096;-75
2021/01/22 21:37:17;;;;;;;33.10;12.45;;;;;;;4.82;83.62;97002.68;249537;1148;26367;-73
2021/01/22 21:42:19;;;;;;;35.13;14.60;;;;;;;4.83;84.19;97011.41;249553;1148;22952;-74
2021/01/22 21:47:21;;;;;;;33.73;12.67;;;;;;;4.86;84.13;97022.23;249463;1148;23032;-74
2021/01/22 21:52:23;;;;;;;21.90;9.05;;;;;;;4.89;84.59;97028.83;249399;1148;22970;-75
2021/01/22 21:57:27;;;;;;;21.50;9.60;;;;;;;4.89;84.57;97020.87;249328;1148;22936;-74
2021/01/22 22:02:30;;;;;;;20.23;8.80;;;;;;;4.93;84.53;96997.98;249771;1155;22942;-74
2021/01/22 22:07:33;;;;;;;19.85;8.45;;;;;;;5.00;84.37;96997.59;249654;1151;23025;-73
2021/01/22 22:12:35;;;;;;;16.37;6.30;;;;;;;5.11;84.89;96999.73;249467;1148;24561;-74
2021/01/22 22:17:37;;;;;;;21.40;7.40;;;;;;;5.18;84.37;96996.69;250027;1151;22977;-72
2021/01/22 22:22:40;;;;;;;17.43;6.97;;;;;;;5.23;84.31;96995.80;249564;1148;22942;-72
2021/01/22 22:27:42;;;;;;;19.40;6.37;;;;;;;5.29;84.79;96989.31;249685;1148;22973;-74
2021/01/22 22:32:44;;;;;;;16.03;6.33;;;;;;;5.39;84.13;96996.28;249626;1148;22954;-72
2021/01/22 22:37:46;;;;;;;12.20;4.53;;;;;;;5.46;84.53;96991.34;249611;1148;23017;-74
2021/01/22 22:42:49;;;;;;;14.20;5.03;;;;;;;5.51;84.60;96983.25;249595;1148;22946;-74
2021/01/22 22:47:51;;;;;;;19.90;7.45;;;;;;;5.58;84.84;96980.19;249477;1151;22970;-75
2021/01/22 22:52:54;;;;;;;21.10;7.50;;;;;;;5.62;84.84;96975.85;249417;1148;23115;-74
2021/01/22 22:57:56;;;;;;;17.40;6.57;;;;;;;5.71;84.53;96971.41;249385;1148;23056;-72
2021/01/22 23:02:58;;;;;;;12.03;4.30;;;;;;;5.82;84.59;96964.77;249435;1148;22938;-74
2021/01/22 23:08:01;;;;;;;12.17;5.03;;;;;;;5.90;84.37;96963.25;249708;1148;23077;-74
2021/01/22 23:13:04;;;;;;;16.63;6.33;;;;;;;5.98;84.77;96961.78;249816;1148;23650;-73
2021/01/22 23:18:06;;;;;;;14.67;5.87;;;;;;;6.06;84.85;96953.08;249386;1148;22977;-74
2021/01/22 23:23:10;;;;;;;17.33;8.03;;;;;;;6.15;84.30;96955.79;249541;1155;23024;-75
2021/01/22 23:28:12;;;;;;;23.97;7.97;;;;;;;6.11;83.81;96949.51;249605;1147;22949;-72
2021/01/22 23:33:15;;;;;;;25.00;8.65;;;;;;;6.03;83.78;96942.26;249584;1148;23035;-74
2021/01/22 23:38:17;;;;;;;22.80;9.27;;;;;;;5.92;83.47;96939.83;249328;1148;22943;-72